Christina O — C6FN7 — position and weather

sailwx.info

Track history (hours):
 
Tides and Currents Weather Stations Pressure Air Temp Water Temp Dewpoint Dewpoint Depression Visibility Wind Speed Wind Dir Waves Ship Positions

Christina O

Operator: V Ships Leisure SAM

Last reported at 2014-Oct-28 14:33 UTC. Time now 2014-Oct-31 16:39 UTC.
Position N 37°16' W 069°57'.

Length 186 m; draft 6.1 m.

Type: Ship. MMSI: 308322000.

Date/timePositionNaut miles runAvg speedWind from/ knotsBaromVisibWave heightAir tempDewpointWater temp
2014-Oct-28 14:33N 37°16' W 069°57'10116.8
2014-Oct-28 08:33N 38°29' W 071°25'2416.7
2014-Oct-28 07:06N 38°47' W 071°47'916.7
2014-Oct-28 06:33N 38°53' W 071°55'1716.6
2014-Oct-28 05:33N 39°06' W 072°09'1716.6
2014-Oct-28 04:33N 39°17' W 072°24'1716.6
2014-Oct-28 03:33N 39°29' W 072°39'2316.9
2014-Oct-28 02:11N 39°46' W 072°60'1216.8
2014-Oct-28 01:28N 39°55' W 073°10'1816.7
2014-Oct-28 00:23N 40°08' W 073°27'1416.8
2014-Oct-27 23:33N 40°18' W 073°39'1615.7
2014-Oct-27 22:33N 40°29' W 073°54'1514.6
2014-Oct-27 21:33N 40°42' W 074°02'4 3.6
2014-Oct-27 20:29N 40°46' W 073°60'0 0.0
2014-Oct-27 19:32N 40°46' W 073°60'0 0.0
2014-Oct-27 18:26N 40°46' W 073°60'0 0.0
2014-Oct-27 17:32N 40°46' W 073°60'0 0.0
2014-Oct-27 16:32N 40°46' W 073°60'0 0.0
2014-Oct-27 15:32N 40°46' W 073°60'0 0.0
2014-Oct-27 14:29N 40°46' W 073°60'0 0.0
2014-Oct-27 13:32N 40°46' W 073°60'0 0.0
2014-Oct-27 12:33N 40°46' W 073°60'0 0.2
2014-Oct-27 11:33N 40°46' W 074°00'8 8.4
2014-Oct-27 10:33N 40°38' W 074°03'1514.5
2014-Oct-27 09:32N 40°28' W 073°49'2610.3
2014-Oct-27 07:03N 40°29' W 073°15'611.0
2014-Oct-27 06:31N 40°29' W 073°07'1111.0
2014-Oct-27 05:31N 40°30' W 072°53'1313.7
2014-Oct-27 04:34N 40°30' W 072°36'1413.6
2014-Oct-27 03:34N 40°35' W 072°19'1414.1
2014-Oct-27 02:34N 40°40' W 072°02'1414.4
2014-Oct-27 01:34N 40°47' W 071°45'1413.9
2014-Oct-27 00:34N 40°56' W 071°31'1514.7
2014-Oct-26 23:34N 41°10' W 071°25'1514.6
2014-Oct-26 22:34N 41°24' W 071°24'6 5.7
2014-Oct-26 21:32N 41°29' W 071°20'0 0.1
2014-Oct-26 20:32N 41°29' W 071°20'0 0.1
2014-Oct-26 19:32N 41°29' W 071°20'0 0.0
2014-Oct-26 18:32N 41°29' W 071°20'0 0.0
2014-Oct-26 17:32N 41°29' W 071°20'0 0.0
2014-Oct-26 16:32N 41°29' W 071°20'0 0.1
2014-Oct-26 15:32N 41°29' W 071°20'0 0.0
2014-Oct-26 14:32N 41°29' W 071°20'0 0.1
2014-Oct-26 13:32N 41°29' W 071°20'0 0.0
2014-Oct-26 12:33N 41°29' W 071°20'0 0.0
2014-Oct-26 11:33N 41°29' W 071°20'6 6.0
2014-Oct-26 10:33N 41°24' W 071°22'1110.6
2014-Oct-26 09:33N 41°13' W 071°21'7 6.6
2014-Oct-26 08:33N 41°07' W 071°26'4 4.3
2014-Oct-26 07:33N 41°09' W 071°20'8 7.9
2014-Oct-26 06:33N 41°16' W 071°15'8 8.0
2014-Oct-26 05:34N 41°22' W 071°09'1110.7
2014-Oct-26 04:34N 41°28' W 070°57'4610.5
2014-Oct-26 00:10N 42°11' W 070°33'813.0
2014-Oct-25 23:32N 42°17' W 070°41'1111.4
2014-Oct-25 22:33N 42°22' W 070°54'6 1.0
2014-Oct-25 16:32N 42°21' W 071°02'0 0.0
2014-Oct-25 15:29N 42°21' W 071°02'0 0.0
2014-Oct-25 11:33N 42°21' W 071°02'7 7.1
2014-Oct-25 10:33N 42°23' W 070°53'1111.1
2014-Oct-25 09:33N 42°29' W 070°41'1412.0
2014-Oct-25 08:23N 42°39' W 070°26'321 8.2
2014-Oct-23 17:08N 44°28' W 063°29'713.1
2014-Oct-23 16:33N 44°35' W 063°32'3 2.6
2014-Oct-23 15:18N 44°38' W 063°34'0 0.0
2014-Oct-23 14:33N 44°38' W 063°34'0 0.0
2014-Oct-23 13:33N 44°38' W 063°34'0 0.0
2014-Oct-23 12:33N 44°38' W 063°34'0 0.0
2014-Oct-23 11:33N 44°38' W 063°34'0 0.0
2014-Oct-23 10:24N 44°38' W 063°34'0 0.0
2014-Oct-23 09:24N 44°38' W 063°34'0 0.0
2014-Oct-23 08:27N 44°38' W 063°34'0 0.0
2014-Oct-23 07:27N 44°38' W 063°34'0 0.0
2014-Oct-23 06:24N 44°38' W 063°34'0 0.0
2014-Oct-23 05:27N 44°38' W 063°34'0 0.0
2014-Oct-23 04:27N 44°38' W 063°34'0 0.0
2014-Oct-23 03:30N 44°38' W 063°34'0 0.0
2014-Oct-23 02:30N 44°38' W 063°34'0 0.0
2014-Oct-23 01:30N 44°38' W 063°34'0 0.0
2014-Oct-22 23:30N 44°38' W 063°34'0 0.0
2014-Oct-22 22:33N 44°38' W 063°34'0 0.0
2014-Oct-22 21:33N 44°38' W 063°34'0 0.0
2014-Oct-22 20:33N 44°38' W 063°34'0 0.0
2014-Oct-22 19:33N 44°38' W 063°34'0 0.0
2014-Oct-22 18:33N 44°38' W 063°34'0 0.0
2014-Oct-22 17:33N 44°38' W 063°34'0 0.0
2014-Oct-22 16:33N 44°38' W 063°34'0 0.0
2014-Oct-22 15:33N 44°38' W 063°34'0 0.0
2014-Oct-22 14:33N 44°38' W 063°34'0 0.0
2014-Oct-22 13:33N 44°38' W 063°34'0 0.0
2014-Oct-22 12:33N 44°38' W 063°34'0 0.1
2014-Oct-22 11:33N 44°38' W 063°34'9 8.6
2014-Oct-22 10:33N 44°30' W 063°29'1211.4
2014-Oct-22 09:32N 44°28' W 063°13'  
Track history (hours):
 
Tides and Currents Weather Stations Pressure Air Temp Water Temp Dewpoint Dewpoint Depression Visibility Wind Speed Wind Dir Waves Ship Positions

Christina O

Operator: V Ships Leisure SAM

Last reported at 2014-Oct-28 14:33 UTC. Time now 2014-Oct-31 16:39 UTC.
Position N 37°16' W 069°57'.

Length 186 m; draft 6.1 m.

Type: Ship. MMSI: 308322000.

Date/timePositionNaut miles runAvg speedWind from/ knotsBaromVisibWave heightAir tempDewpointWater temp
2014-Oct-28 14:33N 37°16' W 069°57'10116.8
2014-Oct-28 08:33N 38°29' W 071°25'2416.7
2014-Oct-28 07:06N 38°47' W 071°47'916.7
2014-Oct-28 06:33N 38°53' W 071°55'1716.6
2014-Oct-28 05:33N 39°06' W 072°09'1716.6
2014-Oct-28 04:33N 39°17' W 072°24'1716.6
2014-Oct-28 03:33N 39°29' W 072°39'2316.9
2014-Oct-28 02:11N 39°46' W 072°60'1216.8
2014-Oct-28 01:28N 39°55' W 073°10'1816.7
2014-Oct-28 00:23N 40°08' W 073°27'1416.8
2014-Oct-27 23:33N 40°18' W 073°39'1615.7
2014-Oct-27 22:33N 40°29' W 073°54'1514.6
2014-Oct-27 21:33N 40°42' W 074°02'4 3.6
2014-Oct-27 20:29N 40°46' W 073°60'0 0.0
2014-Oct-27 19:32N 40°46' W 073°60'0 0.0
2014-Oct-27 18:26N 40°46' W 073°60'0 0.0
2014-Oct-27 17:32N 40°46' W 073°60'0 0.0
2014-Oct-27 16:32N 40°46' W 073°60'0 0.0
2014-Oct-27 15:32N 40°46' W 073°60'0 0.0
2014-Oct-27 14:29N 40°46' W 073°60'0 0.0
2014-Oct-27 13:32N 40°46' W 073°60'0 0.0
2014-Oct-27 12:33N 40°46' W 073°60'0 0.2
2014-Oct-27 11:33N 40°46' W 074°00'8 8.4
2014-Oct-27 10:33N 40°38' W 074°03'1514.5
2014-Oct-27 09:32N 40°28' W 073°49'2610.3
2014-Oct-27 07:03N 40°29' W 073°15'611.0
2014-Oct-27 06:31N 40°29' W 073°07'1111.0
2014-Oct-27 05:31N 40°30' W 072°53'1313.7
2014-Oct-27 04:34N 40°30' W 072°36'1413.6
2014-Oct-27 03:34N 40°35' W 072°19'1414.1
2014-Oct-27 02:34N 40°40' W 072°02'1414.4
2014-Oct-27 01:34N 40°47' W 071°45'1413.9
2014-Oct-27 00:34N 40°56' W 071°31'1514.7
2014-Oct-26 23:34N 41°10' W 071°25'1514.6
2014-Oct-26 22:34N 41°24' W 071°24'6 5.7
2014-Oct-26 21:32N 41°29' W 071°20'0 0.1
2014-Oct-26 20:32N 41°29' W 071°20'0 0.1
2014-Oct-26 19:32N 41°29' W 071°20'0 0.0
2014-Oct-26 18:32N 41°29' W 071°20'0 0.0
2014-Oct-26 17:32N 41°29' W 071°20'0 0.0
2014-Oct-26 16:32N 41°29' W 071°20'0 0.1
2014-Oct-26 15:32N 41°29' W 071°20'0 0.0
2014-Oct-26 14:32N 41°29' W 071°20'0 0.1
2014-Oct-26 13:32N 41°29' W 071°20'0 0.0
2014-Oct-26 12:33N 41°29' W 071°20'0 0.0
2014-Oct-26 11:33N 41°29' W 071°20'6 6.0
2014-Oct-26 10:33N 41°24' W 071°22'1110.6
2014-Oct-26 09:33N 41°13' W 071°21'7 6.6
2014-Oct-26 08:33N 41°07' W 071°26'4 4.3
2014-Oct-26 07:33N 41°09' W 071°20'8 7.9
2014-Oct-26 06:33N 41°16' W 071°15'8 8.0
2014-Oct-26 05:34N 41°22' W 071°09'1110.7
2014-Oct-26 04:34N 41°28' W 070°57'4610.5
2014-Oct-26 00:10N 42°11' W 070°33'813.0
2014-Oct-25 23:32N 42°17' W 070°41'1111.4
2014-Oct-25 22:33N 42°22' W 070°54'6 1.0
2014-Oct-25 16:32N 42°21' W 071°02'0 0.0
2014-Oct-25 15:29N 42°21' W 071°02'0 0.0
2014-Oct-25 11:33N 42°21' W 071°02'7 7.1
2014-Oct-25 10:33N 42°23' W 070°53'1111.1
2014-Oct-25 09:33N 42°29' W 070°41'1412.0
2014-Oct-25 08:23N 42°39' W 070°26'321 8.2
2014-Oct-23 17:08N 44°28' W 063°29'713.1
2014-Oct-23 16:33N 44°35' W 063°32'3 2.6
2014-Oct-23 15:18N 44°38' W 063°34'0 0.0
2014-Oct-23 14:33N 44°38' W 063°34'0 0.0
2014-Oct-23 13:33N 44°38' W 063°34'0 0.0
2014-Oct-23 12:33N 44°38' W 063°34'0 0.0
2014-Oct-23 11:33N 44°38' W 063°34'0 0.0
2014-Oct-23 10:24N 44°38' W 063°34'0 0.0
2014-Oct-23 09:24N 44°38' W 063°34'0 0.0
2014-Oct-23 08:27N 44°38' W 063°34'0 0.0
2014-Oct-23 07:27N 44°38' W 063°34'0 0.0
2014-Oct-23 06:24N 44°38' W 063°34'0 0.0
2014-Oct-23 05:27N 44°38' W 063°34'0 0.0
2014-Oct-23 04:27N 44°38' W 063°34'0 0.0
2014-Oct-23 03:30N 44°38' W 063°34'0 0.0
2014-Oct-23 02:30N 44°38' W 063°34'0 0.0
2014-Oct-23 01:30N 44°38' W 063°34'0 0.0
2014-Oct-22 23:30N 44°38' W 063°34'0 0.0
2014-Oct-22 22:33N 44°38' W 063°34'0 0.0
2014-Oct-22 21:33N 44°38' W 063°34'0 0.0
2014-Oct-22 20:33N 44°38' W 063°34'0 0.0
2014-Oct-22 19:33N 44°38' W 063°34'0 0.0
2014-Oct-22 18:33N 44°38' W 063°34'0 0.0
2014-Oct-22 17:33N 44°38' W 063°34'0 0.0
2014-Oct-22 16:33N 44°38' W 063°34'0 0.0
2014-Oct-22 15:33N 44°38' W 063°34'0 0.0
2014-Oct-22 14:33N 44°38' W 063°34'0 0.0
2014-Oct-22 13:33N 44°38' W 063°34'0 0.0
2014-Oct-22 12:33N 44°38' W 063°34'0 0.1
2014-Oct-22 11:33N 44°38' W 063°34'9 8.6
2014-Oct-22 10:33N 44°30' W 063°29'1211.4
2014-Oct-22 09:32N 44°28' W 063°13'  

Dump ship's entire track history